KDBN/DBN METAR and TAF weather

Enter ICAO airport designator
Station Type Date Time Source
KDBN METAR 2018/12/11 00:55 UTC NOAA

KDBN 110055Z AUTO 00000KT 10SM SCT007 BKN019 OVC048 05/04 A3018 RMK AO2


Station Type Date Time Source
KDBN Decoded METAR 2018/12/11 00:55 UTC NOAA

Dublin, W H 'Bud' Barron Airport, GA, United States (KDBN) 32-33-52N 082-59-06W
Dec 10, 2018 - 07:55 PM EST / 2018.12.11 0055 UTC
Wind: Calm:0
Visibility: 10 mile(s):0
Sky conditions: overcast
Temperature: 41 F (5 C)
Dew Point: 39 F (4 C)
Relative Humidity: 93%
Pressure (altimeter): 30.18 in. Hg (1022 hPa)
ob: KDBN 110055Z AUTO 00000KT 10SM SCT007 BKN019 OVC048 05/04 A3018 RMK AO2
cycle: 1

Station Type Date Time Source
KDBN TAF UTC NOAA

Error!


Example: see airport list